Time;durP1;ratioP1;P1;durP2;ratioP2;P2;SDS_P1;SDS_P2;PMS_P1;PMS_P2;Temp;Humidity;BMP_temperature;BMP_pressure;BME280_temperature;BME280_humidity;BME280_pressure;Samples;Min_cycle;Max_cycle;Signal;HPM_P1;HPM_P2
2023/10/05 00:01:24;;;;;;;20.40;6.33;;;;;;;10.32;95.29;100834.00;4195854;28;20236;-73
2023/10/05 00:03:51;;;;;;;11.83;6.10;;;;;;;10.45;94.75;100831.09;4203760;28;25735;-72
2023/10/05 00:06:23;;;;;;;18.97;5.97;;;;;;;10.39;94.59;100818.97;4190279;28;20458;-71
2023/10/05 00:08:53;;;;;;;18.67;6.73;;;;;;;10.49;94.00;100821.72;4212645;28;20870;-72
2023/10/05 00:11:28;;;;;;;16.10;6.23;;;;;;;10.47;93.77;100821.00;4202082;28;20240;-74
2023/10/05 00:14:00;;;;;;;13.03;6.23;;;;;;;10.42;93.70;100815.16;4199042;28;21378;-73
2023/10/05 00:16:36;;;;;;;14.80;5.70;;;;;;;10.53;93.03;100817.72;4195888;28;20225;-72
2023/10/05 00:19:13;;;;;;;13.73;6.63;;;;;;;10.39;93.46;100812.69;4212707;28;20386;-73
2023/10/05 00:21:55;;;;;;;14.07;5.97;;;;;;;10.44;93.09;100807.72;4185244;28;20225;-73
2023/10/05 00:24:42;;;;;;;11.07;4.97;;;;;;;10.49;93.05;100805.47;4191887;28;20307;-73
2023/10/05 00:27:09;;;;;;;23.30;6.63;;;;;;;10.41;93.20;100813.44;4189605;28;20229;-73
2023/10/05 00:29:45;;;;;;;16.67;5.60;;;;;;;10.46;93.20;100798.47;4203136;28;20866;-72
2023/10/05 00:32:20;;;;;;;12.13;5.37;;;;;;;10.31;93.29;100797.97;4201604;28;22169;-72
2023/10/05 00:35:09;;;;;;;14.70;5.40;;;;;;;10.42;92.95;100799.75;4193867;28;20585;-72
2023/10/05 00:37:36;;;;;;;13.83;5.57;;;;;;;10.46;92.78;100792.22;4197565;28;21809;-73
2023/10/05 00:40:05;;;;;;;14.07;5.90;;;;;;;10.40;92.79;100796.31;4197300;28;20319;-73
2023/10/05 00:42:31;;;;;;;15.60;6.07;;;;;;;10.46;92.78;100793.06;4201797;28;20900;-72
2023/10/05 00:45:01;;;;;;;18.23;6.53;;;;;;;10.50;92.45;100790.09;4196774;28;20275;-72
2023/10/05 00:47:29;;;;;;;19.40;5.97;;;;;;;10.47;92.48;100793.94;4193622;28;21714;-73
2023/10/05 00:49:58;;;;;;;13.90;5.93;;;;;;;10.45;92.28;100794.06;4197320;28;20237;-72
2023/10/05 00:52:25;;;;;;;17.70;6.77;;;;;;;10.35;92.39;100790.44;4192671;28;22274;-73
2023/10/05 00:54:56;;;;;;;14.10;5.97;;;;;;;10.34;92.85;100793.28;4191419;28;21784;-73
2023/10/05 00:57:24;;;;;;;17.47;6.40;;;;;;;10.26;93.20;100794.84;4198042;28;20237;-74
2023/10/05 01:00:10;;;;;;;13.23;5.73;;;;;;;10.34;93.13;100785.19;4191363;28;20245;-72
2023/10/05 01:02:45;;;;;;;16.03;6.00;;;;;;;10.37;92.58;100787.63;4186782;28;20305;-73
2023/10/05 01:05:17;;;;;;;14.47;5.77;;;;;;;10.40;92.37;100788.19;4204459;28;21697;-73
2023/10/05 01:07:56;;;;;;;14.80;5.47;;;;;;;10.39;92.06;100783.78;4180367;28;20408;-75
2023/10/05 01:12:50;;;;;;;16.70;5.60;;;;;;;10.43;91.94;100781.66;4194941;28;20237;-73
2023/10/05 01:15:19;;;;;;;12.40;5.60;;;;;;;10.46;91.69;100776.81;4196281;28;20302;-73
2023/10/05 01:17:52;;;;;;;18.07;6.93;;;;;;;10.28;92.35;100773.03;4202176;28;21269;-73
2023/10/05 01:22:47;;;;;;;11.07;5.50;;;;;;;10.29;92.61;100769.34;4209936;28;20248;-73
2023/10/05 01:25:14;;;;;;;14.80;6.20;;;;;;;10.40;92.14;100773.81;4191511;28;20313;-76
2023/10/05 01:27:46;;;;;;;12.53;6.00;;;;;;;10.53;91.56;100771.72;4193831;28;20232;-74
2023/10/05 01:30:16;;;;;;;10.73;5.47;;;;;;;10.60;91.23;100770.16;4201028;28;20728;-75
2023/10/05 01:32:44;;;;;;;14.27;6.03;;;;;;;10.54;91.13;100767.16;4193518;28;20250;-73
2023/10/05 01:35:13;;;;;;;11.53;5.60;;;;;;;10.58;90.91;100764.03;4188713;28;20229;-72
2023/10/05 01:37:41;;;;;;;15.43;5.50;;;;;;;10.37;91.75;100764.13;4209434;28;20287;-73
2023/10/05 01:40:20;;;;;;;20.03;6.20;;;;;;;10.55;91.15;100760.75;4204461;28;22249;-74
2023/10/05 01:42:48;;;;;;;14.07;5.77;;;;;;;10.60;90.98;100750.38;4191737;28;20240;-73
2023/10/05 01:45:16;;;;;;;17.10;5.60;;;;;;;10.54;91.07;100745.50;4195270;28;22528;-73
2023/10/05 01:47:46;;;;;;;14.27;5.83;;;;;;;10.59;90.58;100749.50;4204647;28;21201;-73
2023/10/05 01:50:22;;;;;;;13.53;5.67;;;;;;;10.53;90.76;100758.19;4195809;28;21285;-72
2023/10/05 01:53:36;;;;;;;15.70;5.40;;;;;;;10.50;91.04;100757.59;4185370;28;20877;-74
2023/10/05 01:55:39;;;;;;;14.57;5.50;;;;;;;10.56;90.64;100743.50;4208523;28;20319;-75
2023/10/05 01:58:07;;;;;;;11.87;5.17;;;;;;;10.59;90.24;100746.78;4201526;28;20237;-74
2023/10/05 02:00:38;;;;;;;13.93;5.53;;;;;;;10.53;90.16;100739.22;4206610;28;20416;-73
2023/10/05 02:03:12;;;;;;;11.23;5.17;;;;;;;10.47;90.99;100742.50;4190723;28;20236;-72
2023/10/05 02:05:41;;;;;;;11.30;5.13;;;;;;;10.60;90.18;100742.25;4203387;28;20232;-73
2023/10/05 02:08:08;;;;;;;13.77;4.87;;;;;;;10.47;90.53;100739.78;4191299;28;21074;-73
2023/10/05 02:10:39;;;;;;;13.10;5.27;;;;;;;10.43;90.84;100739.22;4191982;28;20301;-73
2023/10/05 02:13:11;;;;;;;12.07;5.03;;;;;;;10.40;91.03;100738.63;4183550;28;23197;-73
2023/10/05 02:15:41;;;;;;;13.20;5.53;;;;;;;10.41;90.57;100735.78;4193068;28;20283;-72
2023/10/05 02:18:24;;;;;;;12.10;5.20;;;;;;;10.45;90.78;100736.38;4191182;28;20611;-77
2023/10/05 02:20:59;;;;;;;13.60;5.60;;;;;;;10.58;90.00;100733.41;4197509;28;22342;-72
2023/10/05 02:23:34;;;;;;;12.53;5.43;;;;;;;10.59;89.56;100727.84;4191579;28;21114;-72
2023/10/05 02:26:07;;;;;;;13.43;5.43;;;;;;;10.48;89.92;100736.09;4193529;28;20382;-73
2023/10/05 02:28:35;;;;;;;15.00;5.07;;;;;;;10.47;90.10;100739.78;4198144;28;20288;-73
2023/10/05 02:31:02;;;;;;;13.20;5.77;;;;;;;10.56;89.66;100729.97;4196489;28;20237;-72
2023/10/05 02:33:31;;;;;;;17.20;5.70;;;;;;;10.54;89.53;100732.81;4194681;28;20241;-75
2023/10/05 02:36:20;;;;;;;12.80;5.30;;;;;;;10.48;89.74;100727.97;4191413;28;20237;-74
2023/10/05 02:38:53;;;;;;;14.50;5.63;;;;;;;10.43;90.27;100732.94;4197019;28;20233;-73
2023/10/05 02:41:25;;;;;;;14.47;5.40;;;;;;;10.30;90.53;100725.91;4195427;28;25551;-76
2023/10/05 02:43:52;;;;;;;13.47;5.70;;;;;;;10.34;90.50;100729.19;4212809;28;20251;-75
2023/10/05 02:46:20;;;;;;;13.83;5.43;;;;;;;10.28;90.78;100727.03;4195030;28;20242;-73
2023/10/05 02:48:47;;;;;;;14.70;4.90;;;;;;;10.39;90.54;100734.22;4182999;28;21581;-74
2023/10/05 02:51:16;;;;;;;16.27;6.00;;;;;;;10.41;90.37;100735.78;4194545;28;20626;-75
2023/10/05 02:54:03;;;;;;;13.57;5.60;;;;;;;10.35;90.67;100732.78;4187427;28;20236;-73
2023/10/05 02:56:33;;;;;;;14.73;5.77;;;;;;;10.33;90.75;100729.34;4185573;28;25218;-74
2023/10/05 02:59:07;;;;;;;12.70;5.37;;;;;;;10.26;91.06;100737.13;4194492;28;20319;-75
2023/10/05 03:01:37;;;;;;;15.07;5.80;;;;;;;10.33;90.74;100726.63;4196468;28;20311;-74
2023/10/05 03:04:37;;;;;;;12.50;5.33;;;;;;;10.29;90.68;100716.06;4195354;28;20538;-73
2023/10/05 03:06:55;;;;;;;14.83;5.80;;;;;;;10.30;90.50;100731.31;4199320;28;21756;-76
2023/10/05 03:09:22;;;;;;;16.40;6.10;;;;;;;10.22;90.87;100727.59;4197564;28;20229;-74
2023/10/05 03:11:52;;;;;;;16.00;6.23;;;;;;;10.34;90.56;100728.34;4190057;28;20608;-73
2023/10/05 03:14:18;;;;;;;17.93;5.70;;;;;;;10.37;90.69;100722.66;4191305;28;20288;-72
2023/10/05 03:16:48;;;;;;;13.70;5.47;;;;;;;10.33;90.46;100716.66;4204199;28;20236;-73
2023/10/05 03:19:20;;;;;;;12.00;5.30;;;;;;;10.32;90.42;100712.22;4214253;28;23582;-72
2023/10/05 03:21:49;;;;;;;18.70;5.80;;;;;;;10.30;90.49;100704.25;4193692;28;20327;-72
2023/10/05 03:24:15;;;;;;;17.47;5.60;;;;;;;10.18;90.97;100710.78;4190430;28;20243;-72
2023/10/05 03:26:42;;;;;;;13.27;6.10;;;;;;;10.20;91.29;100699.81;4198657;28;21099;-72
2023/10/05 03:29:11;;;;;;;19.73;6.37;;;;;;;10.21;90.81;100698.84;4195418;28;20229;-73
2023/10/05 03:31:52;;;;;;;15.33;5.77;;;;;;;10.28;90.84;100697.28;4192983;28;21244;-74
2023/10/05 03:34:20;;;;;;;14.53;5.60;;;;;;;10.30;90.86;100701.56;4212723;28;20415;-71
2023/10/05 03:36:47;;;;;;;12.70;5.53;;;;;;;10.28;90.84;100691.88;4206905;28;20239;-73
2023/10/05 03:39:14;;;;;;;15.77;6.03;;;;;;;10.41;90.30;100686.22;4193222;28;20237;-73
2023/10/05 03:41:42;;;;;;;22.37;6.50;;;;;;;10.37;90.06;100692.91;4205075;28;22512;-74
2023/10/05 03:44:08;;;;;;;14.77;5.47;;;;;;;10.31;90.45;100678.91;4197456;28;23597;-72
2023/10/05 03:46:35;;;;;;;21.80;6.47;;;;;;;10.33;90.29;100680.63;4198597;28;20245;-72
2023/10/05 03:49:02;;;;;;;14.83;5.80;;;;;;;10.35;90.29;100674.06;4195880;28;23271;-74
2023/10/05 03:51:29;;;;;;;18.50;6.47;;;;;;;10.31;90.72;100694.28;4197836;28;21446;-73
2023/10/05 03:53:56;;;;;;;14.47;6.07;;;;;;;10.24;91.14;100688.59;4191008;28;21736;-74
2023/10/05 03:56:25;;;;;;;17.00;6.30;;;;;;;10.15;91.14;100690.28;4197760;28;20679;-74
2023/10/05 03:58:55;;;;;;;18.23;6.17;;;;;;;10.26;91.16;100688.44;4190676;28;20238;-75
2023/10/05 04:01:24;;;;;;;17.33;6.47;;;;;;;10.23;91.16;100686.03;4202955;28;20325;-74
2023/10/05 04:03:51;;;;;;;14.23;6.00;;;;;;;10.27;90.89;100687.44;4200798;28;20285;-75
2023/10/05 04:06:23;;;;;;;14.27;6.10;;;;;;;10.31;90.53;100686.16;4197736;28;23637;-73
2023/10/05 04:09:00;;;;;;;18.73;6.57;;;;;;;10.20;90.81;100694.41;4198577;28;21099;-74
2023/10/05 04:11:27;;;;;;;16.03;6.40;;;;;;;10.17;91.53;100686.56;4186787;28;25274;-74
2023/10/05 04:13:56;;;;;;;14.57;5.80;;;;;;;10.15;91.36;100693.00;4200951;28;21054;-75
2023/10/05 04:16:33;;;;;;;20.80;6.20;;;;;;;10.17;91.03;100695.53;4205969;28;20300;-76
2023/10/05 04:19:04;;;;;;;20.17;7.30;;;;;;;9.99;91.75;100685.38;4197901;28;21824;-75
2023/10/05 04:21:32;;;;;;;21.03;6.60;;;;;;;10.07;91.68;100684.72;4194967;28;21532;-74
2023/10/05 04:24:00;;;;;;;17.60;5.77;;;;;;;10.09;91.51;100676.44;4198701;28;22042;-74
2023/10/05 04:26:48;;;;;;;13.40;6.00;;;;;;;10.09;91.80;100676.44;4198648;28;20244;-74
2023/10/05 04:29:20;;;;;;;27.40;6.20;;;;;;;10.03;91.64;100685.97;4194426;28;20239;-72
2023/10/05 04:31:48;;;;;;;15.40;6.07;;;;;;;10.09;91.38;100679.16;4193817;28;20241;-74
2023/10/05 04:34:18;;;;;;;16.13;6.20;;;;;;;10.14;91.27;100680.44;4212265;28;26342;-73
2023/10/05 04:36:49;;;;;;;16.27;6.80;;;;;;;10.04;91.62;100657.09;4199150;28;20245;-73
2023/10/05 04:39:25;;;;;;;14.63;6.30;;;;;;;10.08;91.46;100664.75;4196128;28;20241;-74
2023/10/05 04:41:55;;;;;;;13.23;6.20;;;;;;;10.10;91.48;100662.78;4207047;28;20418;-74
2023/10/05 04:44:22;;;;;;;18.73;6.93;;;;;;;10.10;91.66;100668.19;4200130;28;20239;-75
2023/10/05 04:46:49;;;;;;;14.23;6.00;;;;;;;10.06;91.53;100665.88;4207139;28;20248;-75
2023/10/05 04:49:17;;;;;;;15.33;6.40;;;;;;;10.10;91.63;100661.94;4196387;28;20243;-74
2023/10/05 04:51:44;;;;;;;19.27;6.93;;;;;;;10.11;91.07;100644.72;4188824;28;21282;-83
2023/10/05 04:54:12;;;;;;;18.23;7.70;;;;;;;9.93;92.25;100641.81;4203544;28;20233;-73
2023/10/05 05:07:07;;;;;;;22.80;6.93;;;;;;;10.23;91.09;100629.22;4245413;28;20248;-70
2023/10/05 05:09:39;;;;;;;13.97;6.63;;;;;;;10.22;90.54;100624.78;4228618;28;20232;-70
2023/10/05 05:12:09;;;;;;;17.77;6.83;;;;;;;10.31;90.13;100621.22;4232242;28;20236;-69
2023/10/05 05:14:47;;;;;;;20.67;6.43;;;;;;;10.39;89.94;100612.44;4220139;28;21499;-71
2023/10/05 05:17:18;;;;;;;21.47;6.50;;;;;;;10.38;89.78;100606.19;4202180;28;20232;-74
2023/10/05 05:19:46;;;;;;;17.63;6.83;;;;;;;10.37;89.80;100611.72;4215796;28;20233;-69
2023/10/05 05:22:13;;;;;;;14.23;6.53;;;;;;;10.45;89.31;100612.75;4197435;28;20236;-71
2023/10/05 05:24:44;;;;;;;18.57;7.00;;;;;;;10.39;89.52;100609.72;4196309;28;20244;-80
2023/10/05 05:27:21;;;;;;;14.73;6.33;;;;;;;10.50;89.18;100603.31;4199103;28;21732;-71
2023/10/05 05:29:51;;;;;;;16.60;6.13;;;;;;;10.48;89.28;100599.91;4204085;28;20781;-72
2023/10/05 05:32:22;;;;;;;15.00;6.47;;;;;;;10.57;89.01;100602.63;4196883;28;21069;-73
2023/10/05 05:34:50;;;;;;;16.97;6.33;;;;;;;10.64;88.80;100602.88;4204873;28;20780;-71
2023/10/05 05:37:30;;;;;;;21.83;6.77;;;;;;;10.61;88.55;100600.47;4198089;28;20352;-71
2023/10/05 05:40:01;;;;;;;24.27;6.80;;;;;;;10.60;88.42;100590.66;4200241;28;20241;-68
2023/10/05 05:42:30;;;;;;;15.07;6.20;;;;;;;10.80;87.74;100594.16;4195932;28;20253;-71
2023/10/05 05:44:57;;;;;;;18.13;6.67;;;;;;;10.84;87.57;100595.59;4194287;28;21195;-72
2023/10/05 05:47:24;;;;;;;17.57;6.47;;;;;;;10.90;87.01;100597.72;4193288;28;20811;-75
2023/10/05 05:49:51;;;;;;;16.20;5.97;;;;;;;10.97;86.47;100599.84;4202185;28;20330;-69
2023/10/05 05:52:18;;;;;;;17.07;5.90;;;;;;;11.00;86.47;100610.38;4200468;28;20232;-70
2023/10/05 05:54:48;;;;;;;15.17;5.40;;;;;;;11.04;86.24;100603.66;4192222;28;21057;-72
2023/10/05 05:57:19;;;;;;;18.70;6.97;;;;;;;11.16;85.77;100615.19;4203514;28;22779;-71
2023/10/05 05:59:46;;;;;;;17.63;6.10;;;;;;;11.09;85.85;100602.22;4221532;28;21057;-75
2023/10/05 06:02:13;;;;;;;17.83;6.23;;;;;;;11.26;85.50;100603.31;4223065;28;20642;-74
2023/10/05 06:04:41;;;;;;;19.50;6.13;;;;;;;11.38;84.49;100590.44;4245740;28;22430;-74
2023/10/05 06:07:13;;;;;;;17.20;6.00;;;;;;;11.51;84.41;100592.81;4198216;28;25605;-72
2023/10/05 06:09:43;;;;;;;25.20;6.23;;;;;;;11.56;83.94;100585.06;4229791;28;20585;-76
2023/10/05 06:12:15;;;;;;;22.13;6.13;;;;;;;11.64;83.29;100592.47;4191852;28;20242;-72
2023/10/05 06:14:42;;;;;;;21.17;5.90;;;;;;;11.71;83.19;100590.84;4208103;28;20239;-73
2023/10/05 06:17:09;;;;;;;18.93;6.30;;;;;;;11.80;82.91;100580.09;4205056;28;20243;-74
2023/10/05 06:19:37;;;;;;;18.00;6.50;;;;;;;11.85;82.35;100584.09;4214621;28;21196;-73
2023/10/05 06:22:06;;;;;;;18.20;6.20;;;;;;;11.79;82.27;100573.81;4216260;28;20238;-73
2023/10/05 06:24:42;;;;;;;17.73;5.90;;;;;;;11.87;82.37;100579.34;4194140;28;20311;-72
2023/10/05 06:27:09;;;;;;;13.17;5.43;;;;;;;11.86;82.38;100574.91;4195170;28;20956;-73
2023/10/05 06:29:36;;;;;;;24.30;6.00;;;;;;;11.87;81.74;100568.47;4203774;28;20241;-73
2023/10/05 06:32:08;;;;;;;16.30;5.63;;;;;;;11.92;81.84;100572.63;4211025;28;20862;-75
2023/10/05 06:34:38;;;;;;;15.73;6.07;;;;;;;12.10;81.29;100576.22;4205323;28;25157;-73
2023/10/05 06:37:04;;;;;;;15.53;5.60;;;;;;;12.22;80.78;100573.28;4195164;28;22057;-75
2023/10/05 06:39:32;;;;;;;13.17;5.63;;;;;;;12.20;80.42;100562.56;4196400;28;20238;-74
2023/10/05 06:41:58;;;;;;;29.23;7.40;;;;;;;12.22;79.96;100578.72;4201328;28;20295;-73
2023/10/05 06:44:25;;;;;;;18.23;5.77;;;;;;;12.25;80.30;100572.97;4196741;28;21590;-73
2023/10/05 06:46:53;;;;;;;18.83;5.97;;;;;;;12.32;79.78;100579.47;4210883;28;20444;-74
2023/10/05 06:49:22;;;;;;;15.40;5.17;;;;;;;12.36;79.42;100583.59;4202828;28;20232;-73
2023/10/05 06:51:49;;;;;;;20.70;6.40;;;;;;;12.33;79.67;100583.91;4192273;28;20229;-73
2023/10/05 06:54:17;;;;;;;16.87;5.57;;;;;;;12.27;79.56;100587.25;4196557;28;21208;-74
2023/10/05 06:56:48;;;;;;;19.63;6.03;;;;;;;12.18;79.63;100578.19;4221755;28;20312;-73
2023/10/05 06:59:16;;;;;;;20.17;5.87;;;;;;;12.31;79.59;100591.38;4221038;28;20639;-70
2023/10/05 07:01:42;;;;;;;19.73;5.87;;;;;;;12.48;78.56;100573.34;4216291;28;20512;-71
2023/10/05 07:04:12;;;;;;;18.37;5.73;;;;;;;12.76;77.52;100571.38;4197885;28;20238;-70
2023/10/05 07:06:39;;;;;;;19.20;5.23;;;;;;;12.91;76.51;100566.22;4205970;28;20229;-71
2023/10/05 07:09:05;;;;;;;15.13;5.47;;;;;;;13.05;76.10;100562.06;4231237;28;20286;-74
2023/10/05 07:11:33;;;;;;;17.70;6.07;;;;;;;13.15;75.50;100564.66;4228260;28;20250;-71
2023/10/05 07:14:00;;;;;;;13.53;5.30;;;;;;;13.51;74.09;100569.13;4221843;28;20234;-76
2023/10/05 07:16:29;;;;;;;18.67;5.73;;;;;;;13.71;73.48;100578.72;4210993;28;20339;-72
2023/10/05 07:18:55;;;;;;;11.73;5.40;;;;;;;13.85;72.55;100552.75;4206379;28;21727;-71
2023/10/05 07:21:23;;;;;;;13.23;5.33;;;;;;;13.98;71.78;100557.69;4203077;28;20750;-71
2023/10/05 07:23:49;;;;;;;13.97;5.20;;;;;;;13.77;72.27;100558.16;4196447;28;21399;-70
2023/10/05 07:26:16;;;;;;;13.23;4.93;;;;;;;13.71;72.59;100577.88;4209695;28;20419;-69
2023/10/05 07:28:43;;;;;;;15.43;5.10;;;;;;;13.84;72.38;100570.09;4210646;28;20292;-68
2023/10/05 07:31:10;;;;;;;12.43;5.03;;;;;;;13.81;72.48;100566.84;4195295;28;20407;-70
2023/10/05 07:33:37;;;;;;;13.50;4.90;;;;;;;13.91;72.92;100553.94;4194408;28;20388;-70
2023/10/05 07:36:05;;;;;;;15.53;5.53;;;;;;;13.53;73.64;100554.34;4201813;28;21008;-73
2023/10/05 07:38:32;;;;;;;17.47;5.90;;;;;;;14.04;71.91;100561.63;4202702;28;20260;-76
2023/10/05 07:41:02;;;;;;;12.33;4.87;;;;;;;14.24;70.19;100554.84;4199366;28;20237;-77
2023/10/05 07:43:32;;;;;;;14.93;4.87;;;;;;;14.59;68.50;100549.22;4231904;28;22421;-71
2023/10/05 07:46:00;;;;;;;16.83;5.43;;;;;;;14.71;67.64;100544.31;4229990;28;20237;-75
2023/10/05 07:48:28;;;;;;;19.60;5.30;;;;;;;15.12;66.17;100530.63;4207687;28;20644;-75
2023/10/05 07:50:56;;;;;;;11.27;4.90;;;;;;;15.15;66.02;100538.44;4236359;28;22184;-70
2023/10/05 07:53:22;;;;;;;22.67;5.93;;;;;;;16.08;62.92;100540.59;4223593;28;20236;-74
2023/10/05 07:55:49;;;;;;;12.23;4.33;;;;;;;17.05;58.73;100550.03;4238101;28;20677;-76
2023/10/05 07:58:16;;;;;;;17.00;5.27;;;;;;;17.25;58.55;100533.91;4241423;28;21742;-68
2023/10/05 08:00:45;;;;;;;13.47;4.60;;;;;;;17.39;57.98;100537.66;4234160;28;26322;-75
2023/10/05 08:03:12;;;;;;;16.07;4.80;;;;;;;17.92;56.43;100531.13;4212787;28;20300;-72
2023/10/05 08:05:40;;;;;;;15.07;4.90;;;;;;;17.94;55.69;100524.41;4245103;28;20242;-70
2023/10/05 08:08:07;;;;;;;16.20;4.40;;;;;;;19.24;51.54;100521.53;4225440;28;20311;-69
2023/10/05 08:10:34;;;;;;;14.00;4.63;;;;;;;19.91;49.50;100518.25;4209504;28;23438;-73
2023/10/05 08:13:03;;;;;;;12.50;4.27;;;;;;;18.77;52.47;100515.72;4228143;28;20246;-70
2023/10/05 08:15:30;;;;;;;9.97;3.67;;;;;;;18.80;52.14;100517.22;4227466;28;20632;-71
2023/10/05 08:17:57;;;;;;;14.33;4.17;;;;;;;18.32;53.15;100521.47;4246115;28;20238;-71
2023/10/05 08:20:26;;;;;;;13.07;4.23;;;;;;;18.06;54.11;100513.81;4195215;28;21646;-73
2023/10/05 08:22:56;;;;;;;13.30;4.40;;;;;;;16.45;58.77;100508.88;4197019;28;21197;-70
2023/10/05 08:25:24;;;;;;;18.70;4.57;;;;;;;15.50;63.16;100519.91;4204516;28;20241;-71
2023/10/05 08:27:51;;;;;;;10.67;5.00;;;;;;;14.98;64.84;100507.66;4205157;28;20235;-70
2023/10/05 08:30:19;;;;;;;10.07;4.00;;;;;;;14.58;67.05;100503.94;4194567;28;20415;-73
2023/10/05 08:32:47;;;;;;;12.60;4.47;;;;;;;14.58;67.56;100520.28;4214874;28;20233;-72
2023/10/05 08:35:17;;;;;;;16.30;4.43;;;;;;;14.47;68.23;100510.59;4185736;28;23000;-71
2023/10/05 08:37:48;;;;;;;13.87;4.27;;;;;;;14.47;68.48;100509.75;4201225;28;20234;-72
2023/10/05 08:43:12;;;;;;;13.10;4.57;;;;;;;14.39;68.30;100505.13;4202046;28;20347;-71
2023/10/05 08:45:49;;;;;;;12.20;4.40;;;;;;;14.43;68.21;100501.91;4231452;28;21172;-71
2023/10/05 08:48:35;;;;;;;12.63;3.87;;;;;;;14.48;68.28;100501.41;4199719;28;20559;-71
2023/10/05 08:51:12;;;;;;;14.17;4.30;;;;;;;14.55;68.47;100504.28;4210078;28;22097;-70
2023/10/05 08:53:50;;;;;;;12.40;3.87;;;;;;;14.40;68.42;100502.25;4208124;28;21752;-69
2023/10/05 08:56:18;;;;;;;14.00;4.00;;;;;;;14.54;68.31;100494.41;4187749;28;20661;-70
2023/10/05 08:58:46;;;;;;;15.57;4.70;;;;;;;14.86;68.01;100501.72;4190528;28;21748;-70
2023/10/05 09:01:35;;;;;;;12.53;4.10;;;;;;;14.84;67.13;100500.19;4206941;28;20237;-71
2023/10/05 09:06:55;;;;;;;11.23;4.27;;;;;;;14.99;66.81;100478.53;4243450;28;20618;-71
2023/10/05 09:09:55;;;;;;;22.07;4.67;;;;;;;15.02;66.05;100486.34;4209003;28;20239;-70
2023/10/05 09:12:34;;;;;;;11.33;4.00;;;;;;;15.25;66.18;100496.47;4208961;28;21328;-68
2023/10/05 09:18:00;;;;;;;12.53;4.40;;;;;;;15.43;64.46;100475.25;4191824;28;20358;-66
2023/10/05 09:20:32;;;;;;;17.90;5.33;;;;;;;15.46;64.59;100487.69;4202841;28;20422;-69
2023/10/05 09:23:04;;;;;;;11.57;4.83;;;;;;;15.04;66.14;100487.84;4197699;28;20346;-71
2023/10/05 09:25:35;;;;;;;21.53;5.47;;;;;;;15.07;65.83;100491.25;4227280;28;21136;-70
2023/10/05 09:28:16;;;;;;;12.37;4.40;;;;;;;14.86;66.41;100487.25;4191602;28;20520;-70
2023/10/05 09:30:55;;;;;;;17.70;4.60;;;;;;;14.83;67.13;100483.00;4205011;28;23080;-72
2023/10/05 09:33:25;;;;;;;12.97;4.90;;;;;;;15.05;65.56;100477.81;4198669;28;20271;-70
2023/10/05 09:36:08;;;;;;;20.43;4.70;;;;;;;14.61;67.36;100483.69;4197138;28;20811;-69
2023/10/05 09:38:40;;;;;;;13.13;4.67;;;;;;;14.71;67.84;100485.22;4199065;28;20567;-67
2023/10/05 09:41:08;;;;;;;10.40;3.87;;;;;;;14.78;68.27;100482.66;4219536;28;20330;-68
2023/10/05 09:43:38;;;;;;;13.37;4.27;;;;;;;15.01;67.76;100482.78;4205974;28;20377;-69
2023/10/05 09:46:09;;;;;;;10.53;3.97;;;;;;;15.15;66.81;100491.25;4198649;28;21142;-73
2023/10/05 09:48:38;;;;;;;17.17;4.50;;;;;;;15.06;66.87;100474.06;4208502;28;20276;-76
2023/10/05 09:51:10;;;;;;;16.50;4.63;;;;;;;15.15;65.61;100480.31;4194048;28;20601;-72
2023/10/05 09:53:38;;;;;;;11.10;4.20;;;;;;;15.15;66.03;100478.44;4206590;28;20267;-71
2023/10/05 09:56:11;;;;;;;17.60;4.13;;;;;;;15.26;65.00;100471.75;4209893;28;20233;-73
2023/10/05 09:58:42;;;;;;;16.63;3.77;;;;;;;15.15;64.86;100474.88;4220900;28;21770;-73
2023/10/05 10:01:20;;;;;;;14.47;4.00;;;;;;;15.36;66.39;100475.13;4206951;28;20330;-56
2023/10/05 10:03:52;;;;;;;13.50;4.10;;;;;;;15.33;64.98;100461.00;4220977;28;20228;-72
2023/10/05 10:06:28;;;;;;;10.70;3.27;;;;;;;15.30;63.77;100481.28;4187080;28;20818;-73
2023/10/05 10:09:09;;;;;;;12.13;3.70;;;;;;;15.36;64.06;100455.19;4193600;28;20524;-71
2023/10/05 10:11:36;;;;;;;14.30;3.60;;;;;;;15.34;64.29;100471.72;4211903;28;20243;-72
2023/10/05 10:14:09;;;;;;;12.70;3.50;;;;;;;15.26;63.17;100474.47;4220487;28;20313;-72
2023/10/05 10:16:42;;;;;;;12.97;3.63;;;;;;;15.24;63.93;100475.69;4207555;28;20235;-70
2023/10/05 10:19:23;;;;;;;12.37;3.33;;;;;;;15.43;63.53;100477.13;4234092;28;20240;-71
2023/10/05 10:22:00;;;;;;;14.10;4.43;;;;;;;15.53;63.43;100459.50;4213782;28;20780;-74
2023/10/05 10:24:29;;;;;;;16.30;3.53;;;;;;;15.35;62.41;100454.31;4202810;28;20232;-69
2023/10/05 10:27:07;;;;;;;13.97;3.80;;;;;;;15.23;63.71;100473.97;4207969;28;22667;-69
2023/10/05 10:29:45;;;;;;;11.10;3.27;;;;;;;15.10;64.15;100453.59;4215125;28;22175;-70
2023/10/05 10:32:31;;;;;;;16.33;3.63;;;;;;;15.21;64.09;100468.72;4223850;28;20663;-71
2023/10/05 10:37:38;;;;;;;12.50;4.13;;;;;;;15.29;64.62;100446.03;4204274;28;22080;-71
2023/10/05 10:40:25;;;;;;;12.90;3.93;;;;;;;15.31;63.97;100443.94;4199422;28;21970;-69
2023/10/05 10:45:36;;;;;;;14.97;4.53;;;;;;;15.09;64.57;100440.97;4205316;28;20832;-73
2023/10/05 10:48:15;;;;;;;12.43;3.93;;;;;;;15.06;64.42;100449.53;4209498;28;20238;-74
2023/10/05 10:50:42;;;;;;;14.63;3.40;;;;;;;14.95;65.22;100431.69;4201981;28;20306;-72
2023/10/05 10:53:16;;;;;;;12.30;4.07;;;;;;;15.05;64.46;100429.59;4209710;28;20309;-72
2023/10/05 10:56:04;;;;;;;10.63;4.03;;;;;;;15.12;64.95;100427.00;4201180;28;22274;-72
2023/10/05 10:58:34;;;;;;;11.40;3.73;;;;;;;15.18;65.03;100426.28;4211435;28;20291;-70
2023/10/05 11:01:03;;;;;;;16.90;4.13;;;;;;;15.28;64.16;100417.88;4206922;28;20411;-70
2023/10/05 11:03:32;;;;;;;12.47;3.70;;;;;;;15.29;64.60;100421.47;4204790;28;25528;-71
2023/10/05 11:06:04;;;;;;;18.33;4.10;;;;;;;15.30;63.73;100404.06;4198699;28;20237;-70
2023/10/05 11:08:34;;;;;;;10.20;3.17;;;;;;;15.31;63.62;100406.63;4214994;28;20240;-69
2023/10/05 11:11:15;;;;;;;8.43;3.60;;;;;;;15.46;63.27;100394.94;4207388;28;20366;-69
2023/10/05 11:13:49;;;;;;;13.53;3.70;;;;;;;15.46;63.18;100401.22;4196160;28;20320;-70
2023/10/05 11:16:16;;;;;;;10.80;3.50;;;;;;;15.50;62.93;100396.25;4225434;28;20233;-70
2023/10/05 11:18:57;;;;;;;9.57;3.40;;;;;;;15.46;63.17;100395.78;4226838;28;20230;-68
2023/10/05 11:21:26;;;;;;;17.40;3.77;;;;;;;15.51;63.21;100403.44;4195989;28;20431;-70
2023/10/05 11:23:57;;;;;;;17.50;3.33;;;;;;;15.48;62.06;100393.72;4216822;28;21765;-68
2023/10/05 11:26:33;;;;;;;16.20;3.70;;;;;;;15.39;62.51;100392.06;4225790;28;20244;-70
2023/10/05 11:29:20;;;;;;;14.90;3.67;;;;;;;15.49;62.87;100392.69;4207113;28;20245;-68
2023/10/05 11:31:51;;;;;;;14.10;3.87;;;;;;;15.41;63.29;100394.66;4223500;28;20233;-70
2023/10/05 11:34:42;;;;;;;13.60;4.23;;;;;;;15.41;62.60;100384.56;4201826;28;21990;-69
2023/10/05 11:37:30;;;;;;;14.33;3.87;;;;;;;15.46;61.92;100398.50;4231227;28;21961;-68
2023/10/05 11:40:00;;;;;;;12.30;3.47;;;;;;;15.46;62.58;100384.88;4215430;28;20241;-68
2023/10/05 11:42:33;;;;;;;13.87;3.97;;;;;;;15.41;62.81;100381.84;4196392;28;20309;-66
2023/10/05 11:45:03;;;;;;;14.90;4.27;;;;;;;15.37;63.02;100377.75;4198509;28;20676;-68
2023/10/05 11:47:41;;;;;;;9.67;3.17;;;;;;;15.38;62.19;100374.00;4222541;28;20778;-68
2023/10/05 11:50:22;;;;;;;18.07;3.57;;;;;;;15.44;62.30;100367.84;4235091;28;25730;-67
2023/10/05 11:52:52;;;;;;;13.13;3.70;;;;;;;15.60;62.29;100364.16;4224329;28;20301;-68
2023/10/05 11:55:22;;;;;;;9.97;3.37;;;;;;;15.72;63.08;100350.06;4221492;28;21193;-67
2023/10/05 11:57:48;;;;;;;15.73;3.43;;;;;;;15.69;62.41;100362.19;4241807;28;20242;-70
2023/10/05 12:00:18;;;;;;;14.27;3.90;;;;;;;15.66;62.32;100355.22;4206231;28;21866;-69
2023/10/05 12:02:45;;;;;;;8.23;3.20;;;;;;;15.45;62.41;100358.63;4228348;28;20228;-69
2023/10/05 12:05:13;;;;;;;8.83;3.03;;;;;;;15.51;62.16;100370.69;4221778;28;20222;-68